Terminal Aerodrome Forecast
Issued by NWS Buffalo, NY

Home | Current Version | Previous Version | Text Only | Print | Product List | Glossary On
Versions: 1 2 3 4 5 6 7 8 9 10 11 12 13 14 15 16 17 18 19 20 21 22 23
900
FTUS41 KBUF 201120
TAFART
TAF
KART 201120Z 2012/2112 26005KT P6SM SCT045
     FM201400 25008KT P6SM SCT250
     FM201800 24012KT P6SM FEW250
     FM202300 21007KT P6SM FEW250=

USA.gov is the U.S. government's official web portal to all federal, state and local government web resources and services.